Page, AZ

4:23 AM MST on September 22, 2014 (GMT -0700)
Page Municipal | Change Station
CLOSE
Current Station
Airport
Location: Page,
Elevation: 4308 ft
Nearby Weather Stations

Elev 4308 ft 36.92 °N, 111.45 °W | Updated 30 minutes ago

Clear
Clear
66 °F
Feels Like 66 °F
N
0
Wind Variable Wind from North

Today
High -- | Low -- °F
--% Chance of Precip.
Yesterday
High -- | Low -- °F
Precip. -- in
6:13 AM 6:22 PM
Waning Crescent, 3% visible
Pressure 29.96 in
Visibility 10.0 miles
Clouds Clear
Dew Point 57 °F
Humidity 73%
Rainfall 0.00 in
Snow Depth 0 in , 0 in , 2 in
UV 0 out of 12
Pollen 5.80 out of 12
Air Quality Not available.
Flu Activity Not available.
METAR KPGA 221053Z AUTO 00000KT 10SM CLR 19/14 A3014 RMK AO2 SLP145 T01890139

More Conditions Fewer Conditions

Pressure 29.96 in
Visibility 10.0 miles
Clouds Clear
Dew Point 57 °F
Humidity 73%
Rainfall 0.00 in
Snow Depth 0 in , 0 in , 2 in
UV 0 out of 12
Pollen 5.80 out of 12
Air Quality Not available.
Flu Activity Not available.
METAR KPGA 221053Z AUTO 00000KT 10SM CLR 19/14 A3014 RMK AO2 SLP145 T01890139

More Conditions Fewer Conditions

10-Day Weather Forecast

Almanac

Astronomy

Sep. 22, 2014 Rise Set
Actual Time 6:13 AM MST 6:22 PM MST
Civil Twilight 5:47 AM MST 6:48 PM MST
Nautical Twilight 5:17 AM MST 7:18 PM MST
Astronomical Twilight 4:46 AM MST 7:49 PM MST
Moon 4:47 AM MST 5:31 PM MST
Length of Visible Light 13h 00m
Length of Day
12h 08m
Tomorrow will be 2m 20s shorter.
Waning Crescent, 3% of the Moon is Illuminated
Today
Waning Crescent
Sep 24
New
Oct 1
First Quarter
Oct 8
Full
Oct 15
Last Quarter

Today's Extremes

State Highs State Lows

Community

WunderPhotos

Upload Photos

1,755,409 photos uploaded!

Nearby

Snow Depth

Station Depth Elevation
Coronado Trail 0 in 8400 ft
Maverick Fork 0 in 9200 ft
Wildcat 0 in 7850 ft
Workman Creek 2 in 6900 ft
White Horse Lake 0 in 7180 ft

Earthquake Activity

City Distance Mag. Time & Date
No recent earthquake activity has been reported nearby.
Minimum magnitude displayed is 2.5.

Coastal Water Temperatures

Place Temperature
No Stations Reporting

Nearby Weather Stations